createdAt,value
2019-03-22T00:01:13.419Z,99.90
2019-03-22T00:04:01.790Z,99.90
2019-03-22T00:06:45.739Z,99.90
2019-03-22T00:09:31.415Z,99.90
2019-03-22T00:12:05.142Z,99.90
2019-03-22T00:14:49.704Z,99.90
2019-03-22T00:17:35.727Z,99.90
2019-03-22T00:20:10.372Z,99.90
2019-03-22T00:22:54.707Z,99.90
2019-03-22T00:28:41.378Z,99.90
2019-03-22T00:31:27.459Z,99.90
2019-03-22T00:34:11.562Z,99.90
2019-03-22T00:36:56.407Z,99.90
2019-03-22T00:39:40.415Z,99.90
2019-03-22T00:42:25.274Z,99.90
2019-03-22T00:45:09.132Z,99.90
2019-03-22T00:47:54.712Z,99.90
2019-03-22T00:50:39.078Z,99.90
2019-03-22T00:53:22.952Z,99.90
2019-03-22T00:56:06.756Z,99.90
2019-03-22T00:58:51.725Z,99.90
2019-03-22T01:01:36.456Z,99.90
2019-03-22T01:04:20.924Z,99.90
2019-03-22T01:07:05.005Z,99.90
2019-03-22T01:09:39.184Z,99.90
2019-03-22T01:12:23.252Z,99.90
2019-03-22T01:15:10.330Z,99.90
2019-03-22T01:18:01.900Z,99.90
2019-03-22T01:20:35.214Z,99.90
2019-03-22T01:23:20.992Z,99.90
2019-03-22T01:26:04.964Z,99.90
2019-03-22T01:28:48.943Z,99.90
2019-03-22T01:31:33.696Z,99.90
2019-03-22T01:34:18.509Z,99.90
2019-03-22T01:37:02.813Z,99.90
2019-03-22T01:39:47.056Z,99.90
2019-03-22T01:42:31.012Z,99.90
2019-03-22T01:47:59.620Z,99.90
2019-03-22T01:50:44.269Z,99.90
2019-03-22T01:53:29.244Z,99.90
2019-03-22T01:56:13.086Z,99.90
2019-03-22T01:58:57.815Z,99.90
2019-03-22T02:01:44.779Z,99.90
2019-03-22T02:04:28.805Z,99.90
2019-03-22T02:07:17.489Z,99.90
2019-03-22T02:12:59.050Z,99.90
2019-03-22T02:15:42.969Z,99.90
2019-03-22T02:18:16.045Z,99.90
2019-03-22T02:21:01.373Z,99.90
2019-03-22T02:23:45.207Z,99.90
2019-03-22T02:26:18.331Z,99.90
2019-03-22T02:29:02.514Z,99.90
2019-03-22T02:31:46.926Z,99.90
2019-03-22T02:34:31.317Z,99.90
2019-03-22T02:37:17.959Z,99.90
2019-03-22T02:40:02.319Z,99.90
2019-03-22T02:42:46.518Z,99.90
2019-03-22T02:45:20.315Z,99.90
2019-03-22T02:48:04.730Z,99.90
2019-03-22T02:50:48.533Z,99.90
2019-03-22T02:53:22.968Z,99.90
2019-03-22T02:56:07.319Z,99.90
2019-03-22T02:58:51.157Z,99.90
2019-03-22T03:01:37.247Z,99.90
2019-03-22T03:04:21.810Z,99.90
2019-03-22T03:07:05.942Z,99.90
2019-03-22T03:09:53.798Z,99.90
2019-03-22T03:12:40.402Z,99.90
2019-03-22T03:15:24.822Z,99.90
2019-03-22T03:18:10.892Z,99.90
2019-03-22T03:20:54.903Z,99.90
2019-03-22T03:23:39.724Z,99.90
2019-03-22T03:26:23.572Z,99.90
2019-03-22T03:29:10.378Z,99.90
2019-03-22T03:31:56.154Z,99.90
2019-03-22T03:34:40.477Z,99.90
2019-03-22T03:37:25.332Z,99.90
2019-03-22T03:40:09.636Z,99.90
2019-03-22T03:42:54.272Z,99.90
2019-03-22T03:45:38.817Z,99.90
2019-03-22T03:48:22.586Z,99.90
2019-03-22T03:51:07.286Z,99.90
2019-03-22T03:53:52.602Z,99.90
2019-03-22T03:56:37.257Z,99.90
2019-03-22T03:59:21.640Z,99.90
2019-03-22T04:02:07.920Z,99.90
2019-03-22T04:04:51.984Z,99.90
2019-03-22T04:07:38.195Z,99.90
2019-03-22T04:10:23.940Z,99.90
2019-03-22T04:13:08.249Z,99.90
2019-03-22T04:15:54.548Z,99.90
2019-03-22T04:18:38.765Z,99.90
2019-03-22T04:21:22.989Z,99.90
2019-03-22T04:24:09.109Z,99.90
2019-03-22T04:26:54.887Z,99.90
2019-03-22T04:29:39.497Z,99.90
2019-03-22T04:32:23.618Z,99.90
2019-03-22T04:35:08.186Z,99.90
2019-03-22T04:37:52.108Z,99.90
2019-03-22T04:40:37.117Z,99.90
2019-03-22T04:43:21.662Z,99.90
2019-03-22T04:46:06.053Z,99.90
2019-03-22T04:48:51.885Z,99.90
2019-03-22T04:51:37.143Z,99.90
2019-03-22T04:54:21.498Z,99.90
2019-03-22T04:57:06.979Z,99.90
2019-03-22T05:02:54.366Z,99.90
2019-03-22T05:05:41.275Z,99.90
2019-03-22T05:08:25.913Z,99.90
2019-03-22T05:11:10.197Z,99.90
2019-03-22T05:13:55.085Z,99.90
2019-03-22T05:16:38.833Z,99.90
2019-03-22T05:19:23.575Z,99.90
2019-03-22T05:22:07.955Z,99.90
2019-03-22T05:24:53.557Z,99.90
2019-03-22T05:27:38.457Z,99.90
2019-03-22T05:30:44.781Z,99.90
2019-03-22T05:33:29.400Z,99.90
2019-03-22T05:36:13.314Z,99.90
2019-03-22T05:38:57.107Z,99.90
2019-03-22T05:41:43.457Z,99.90
2019-03-22T05:44:27.354Z,99.90
2019-03-22T05:47:12.916Z,99.90
2019-03-22T05:49:47.886Z,99.90
2019-03-22T05:52:32.406Z,99.90
2019-03-22T05:55:06.136Z,99.90
2019-03-22T05:57:50.720Z,99.90
2019-03-22T06:00:23.769Z,99.90
2019-03-22T06:03:07.963Z,99.90
2019-03-22T06:05:52.516Z,99.90
2019-03-22T06:08:36.348Z,99.90
2019-03-22T06:11:09.421Z,99.90
2019-03-22T06:13:53.430Z,99.90
2019-03-22T06:16:37.369Z,99.90
2019-03-22T06:19:22.737Z,99.90
2019-03-22T06:21:56.186Z,99.90
2019-03-22T06:27:28.253Z,99.90
2019-03-22T06:30:12.796Z,99.90
2019-03-22T06:32:57.899Z,99.90
2019-03-22T06:35:43.225Z,99.90
2019-03-22T06:38:28.572Z,99.90
2019-03-22T06:41:14.675Z,99.90
2019-03-22T06:43:59.967Z,99.90
2019-03-22T06:46:45.576Z,99.90
2019-03-22T06:49:31.753Z,99.90
2019-03-22T06:52:19.733Z,99.90
2019-03-22T06:55:05.904Z,99.90
2019-03-22T06:57:49.952Z,99.90
2019-03-22T07:00:35.419Z,99.90
2019-03-22T07:03:20.069Z,99.90
2019-03-22T07:06:04.870Z,99.90
2019-03-22T07:08:51.804Z,99.90
2019-03-22T07:11:36.069Z,99.90
2019-03-22T07:14:21.247Z,99.90
2019-03-22T07:17:05.921Z,99.90
2019-03-22T07:19:54.740Z,99.90
2019-03-22T07:22:39.762Z,99.90
2019-03-22T07:25:26.351Z,99.90
2019-03-22T07:28:10.435Z,99.90
2019-03-22T07:30:54.792Z,99.90
2019-03-22T07:33:38.912Z,99.90
2019-03-22T07:36:25.196Z,99.90
2019-03-22T07:39:09.794Z,99.90
2019-03-22T07:41:53.876Z,99.90
2019-03-22T07:44:39.225Z,99.90
2019-03-22T07:47:23.943Z,99.90
2019-03-22T07:50:08.738Z,99.90
2019-03-22T07:52:53.725Z,99.90
2019-03-22T07:55:26.735Z,99.90
2019-03-22T07:58:11.579Z,99.90
2019-03-22T08:00:56.386Z,99.90
2019-03-22T08:03:41.263Z,99.90
2019-03-22T08:06:26.125Z,99.90
2019-03-22T08:09:10.355Z,99.90
2019-03-22T08:11:56.096Z,99.90
2019-03-22T08:14:41.454Z,99.90
2019-03-22T08:17:25.546Z,99.90
2019-03-22T08:20:11.774Z,99.90
2019-03-22T08:22:44.848Z,99.90
2019-03-22T08:25:28.834Z,99.90
2019-03-22T08:28:14.991Z,99.90
2019-03-22T08:30:59.638Z,99.90
2019-03-22T08:33:45.828Z,99.90
2019-03-22T08:36:29.750Z,99.90
2019-03-22T08:39:14.059Z,99.90
2019-03-22T08:41:59.092Z,99.90
2019-03-22T08:44:45.757Z,99.90
2019-03-22T08:47:34.322Z,99.90
2019-03-22T08:50:15.627Z,99.90
2019-03-22T08:52:59.984Z,99.90
2019-03-22T08:55:44.620Z,99.90
2019-03-22T08:58:29.521Z,99.90
2019-03-22T09:01:13.898Z,99.90
2019-03-22T09:03:59.885Z,99.90
2019-03-22T09:06:44.322Z,99.90
2019-03-22T09:09:40.713Z,99.90
2019-03-22T09:12:14.675Z,99.90
2019-03-22T09:14:47.990Z,99.90
2019-03-22T09:17:32.913Z,99.90
2019-03-22T09:20:17.224Z,99.90
2019-03-22T09:23:02.095Z,99.90
2019-03-22T09:25:48.280Z,99.90
2019-03-22T09:28:33.060Z,99.90
2019-03-22T09:31:20.998Z,99.90
2019-03-22T09:34:05.951Z,99.90
2019-03-22T09:36:50.534Z,99.90
2019-03-22T09:39:36.049Z,99.90
2019-03-22T09:42:21.009Z,99.90
2019-03-22T09:44:55.347Z,99.90
2019-03-22T09:47:39.829Z,99.90
2019-03-22T09:50:23.816Z,99.90
2019-03-22T09:53:09.591Z,99.90
2019-03-22T09:55:55.499Z,99.90
2019-03-22T09:58:28.903Z,99.90
2019-03-22T10:01:23.527Z,99.90
2019-03-22T10:04:00.669Z,99.90
2019-03-22T10:06:34.072Z,99.90
2019-03-22T10:09:17.975Z,99.90
2019-03-22T10:11:51.874Z,99.90
2019-03-22T10:14:35.769Z,99.90
2019-03-22T10:17:20.316Z,99.90
2019-03-22T10:20:04.726Z,99.90
2019-03-22T10:22:49.618Z,99.90
2019-03-22T10:25:35.013Z,99.90
2019-03-22T10:28:19.448Z,99.90
2019-03-22T10:31:05.630Z,99.90
2019-03-22T10:33:49.978Z,99.90
2019-03-22T10:36:34.504Z,99.90
2019-03-22T10:39:18.825Z,99.90
2019-03-22T10:42:02.717Z,99.90
2019-03-22T10:44:46.925Z,99.90
2019-03-22T10:47:31.383Z,99.90
2019-03-22T10:50:17.010Z,99.90
2019-03-22T10:53:01.843Z,99.90
2019-03-22T10:55:46.133Z,99.90
2019-03-22T10:58:30.763Z,99.90
2019-03-22T11:01:14.867Z,99.90
2019-03-22T11:03:59.426Z,99.90
2019-03-22T11:06:44.483Z,99.90
2019-03-22T11:09:30.815Z,99.90
2019-03-22T11:12:16.261Z,99.90
2019-03-22T11:15:00.322Z,99.90
2019-03-22T11:17:44.416Z,99.90
2019-03-22T11:20:30.065Z,99.90
2019-03-22T11:23:16.898Z,99.90
2019-03-22T11:26:04.446Z,99.90
2019-03-22T11:28:49.511Z,99.90
2019-03-22T11:31:39.798Z,99.60
2019-03-22T11:34:20.654Z,98.10
2019-03-22T11:36:54.849Z,99.90
2019-03-22T11:39:40.056Z,99.50
2019-03-22T11:42:25.103Z,99.70
2019-03-22T11:45:11.687Z,99.90
2019-03-22T11:47:56.116Z,99.40
2019-03-22T11:50:41.420Z,99.90
2019-03-22T11:53:25.508Z,99.90
2019-03-22T11:56:10.694Z,99.60
2019-03-22T11:58:43.778Z,98.00
2019-03-22T12:01:27.878Z,99.20
2019-03-22T12:04:01.582Z,98.70
2019-03-22T12:06:46.412Z,99.80
2019-03-22T12:09:20.267Z,99.60
2019-03-22T12:11:53.305Z,99.90
2019-03-22T12:14:37.684Z,99.50
2019-03-22T12:17:22.748Z,99.80
2019-03-22T12:25:37.871Z,98.50
2019-03-22T12:28:22.258Z,98.40
2019-03-22T12:31:07.936Z,99.30
2019-03-22T12:33:51.943Z,97.10
2019-03-22T12:36:36.287Z,98.10
2019-03-22T12:39:22.831Z,98.60
2019-03-22T12:42:07.836Z,98.60
2019-03-22T12:44:54.139Z,98.00
2019-03-22T12:47:39.680Z,98.50
2019-03-22T12:50:26.698Z,97.20
2019-03-22T12:53:14.953Z,98.40
2019-03-22T12:55:59.271Z,97.20
2019-03-22T12:58:44.958Z,97.30
2019-03-22T13:01:30.442Z,98.80
2019-03-22T13:04:15.281Z,97.40
2019-03-22T13:07:03.910Z,98.80
2019-03-22T13:09:48.509Z,98.40
2019-03-22T13:12:33.549Z,96.90
2019-03-22T13:15:17.456Z,98.80
2019-03-22T13:18:03.230Z,97.90
2019-03-22T13:20:47.291Z,97.70
2019-03-22T13:23:31.894Z,96.80
2019-03-22T13:26:16.371Z,98.20
2019-03-22T13:29:02.477Z,96.90
2019-03-22T13:31:48.243Z,98.20
2019-03-22T13:34:32.861Z,97.60
2019-03-22T13:37:19.392Z,97.60
2019-03-22T13:40:03.727Z,97.90
2019-03-22T13:42:47.555Z,95.70
2019-03-22T13:45:35.975Z,97.50
2019-03-22T13:48:22.188Z,96.70
2019-03-22T13:51:06.057Z,97.00
2019-03-22T13:53:50.726Z,96.30
2019-03-22T13:56:35.633Z,97.60
2019-03-22T13:59:20.614Z,97.90
2019-03-22T14:02:04.949Z,96.10
2019-03-22T14:04:49.601Z,97.40
2019-03-22T14:07:33.966Z,98.30
2019-03-22T14:10:08.341Z,98.20
2019-03-22T14:12:52.643Z,96.90
2019-03-22T14:15:37.058Z,97.20
2019-03-22T14:18:22.000Z,97.80
2019-03-22T14:21:06.982Z,97.20
2019-03-22T14:23:51.963Z,96.80
2019-03-22T14:26:36.476Z,95.70
2019-03-22T14:29:23.439Z,97.50
2019-03-22T14:31:56.530Z,97.10
2019-03-22T14:34:41.474Z,97.10
2019-03-22T14:40:31.480Z,96.40
2019-03-22T14:43:15.586Z,95.70
2019-03-22T14:45:59.939Z,96.10
2019-03-22T14:48:45.085Z,96.00
2019-03-22T14:51:19.351Z,96.10
2019-03-22T14:53:52.620Z,96.00
2019-03-22T14:56:37.825Z,96.50
2019-03-22T14:59:21.922Z,96.50
2019-03-22T15:02:08.145Z,96.40
2019-03-22T15:04:52.403Z,96.70
2019-03-22T15:07:37.808Z,96.70
2019-03-22T15:10:22.942Z,96.00
2019-03-22T15:13:09.032Z,96.50
2019-03-22T15:19:28.756Z,96.20
2019-03-22T15:22:31.834Z,96.30
2019-03-22T15:25:37.032Z,95.90
2019-03-22T15:28:40.999Z,96.40
2019-03-22T15:31:44.494Z,96.40
2019-03-22T15:34:49.421Z,96.10
2019-03-22T15:37:41.895Z,95.60
2019-03-22T15:40:26.520Z,95.30
2019-03-22T15:43:12.839Z,95.90
2019-03-22T15:45:56.916Z,96.30
2019-03-22T15:48:41.418Z,95.90
2019-03-22T15:51:26.110Z,95.90
2019-03-22T15:54:10.748Z,95.70
2019-03-22T15:59:38.874Z,96.40
2019-03-22T16:02:23.970Z,95.60
2019-03-22T16:04:57.059Z,95.90
2019-03-22T16:07:41.130Z,95.50
2019-03-22T16:10:25.224Z,96.00
2019-03-22T16:13:10.008Z,96.20
2019-03-22T16:15:54.553Z,95.90
2019-03-22T16:18:40.632Z,95.60
2019-03-22T16:21:27.063Z,95.40
2019-03-22T16:24:11.138Z,95.50
2019-03-22T16:26:55.504Z,95.60
2019-03-22T16:29:39.564Z,95.40
2019-03-22T16:32:23.798Z,95.50
2019-03-22T16:35:08.279Z,95.90
2019-03-22T16:37:52.435Z,95.00
2019-03-22T16:40:25.500Z,95.50
2019-03-22T16:43:10.227Z,95.60
2019-03-22T16:45:54.978Z,95.80
2019-03-22T16:48:39.081Z,96.10
2019-03-22T16:51:23.983Z,95.90
2019-03-22T16:54:09.947Z,96.10
2019-03-22T16:56:54.887Z,96.30
2019-03-22T16:59:39.748Z,96.40
2019-03-22T17:02:23.862Z,96.10
2019-03-22T17:05:09.255Z,96.20
2019-03-22T17:07:53.423Z,96.70
2019-03-22T17:10:37.790Z,96.40
2019-03-22T17:13:10.949Z,96.50
2019-03-22T17:15:56.176Z,96.90
2019-03-22T17:18:40.900Z,96.70
2019-03-22T17:21:25.386Z,96.10
2019-03-22T17:24:10.065Z,96.30
2019-03-22T17:26:54.896Z,97.30
2019-03-22T17:29:39.286Z,96.40
2019-03-22T17:32:25.881Z,96.40
2019-03-22T17:35:10.709Z,97.40
2019-03-22T17:37:54.451Z,97.90
2019-03-22T17:40:38.701Z,99.20
2019-03-22T17:43:22.934Z,97.60
2019-03-22T17:46:06.716Z,98.80
2019-03-22T17:48:51.411Z,98.60
2019-03-22T17:51:35.642Z,98.50
2019-03-22T17:54:19.538Z,99.10
2019-03-22T17:57:04.120Z,99.60
2019-03-22T17:59:48.508Z,99.90
2019-03-22T18:02:32.954Z,99.90
2019-03-22T18:05:18.187Z,99.90
2019-03-22T18:08:02.069Z,99.90
2019-03-22T18:10:46.859Z,99.90
2019-03-22T18:13:30.697Z,99.90
2019-03-22T18:16:03.740Z,99.90
2019-03-22T18:21:59.998Z,99.90
2019-03-22T18:24:44.503Z,99.90
2019-03-22T18:27:29.323Z,99.90
2019-03-22T18:30:14.595Z,99.90
2019-03-22T18:32:59.234Z,99.90
2019-03-22T18:35:32.256Z,99.90
2019-03-22T18:38:17.322Z,99.90
2019-03-22T18:41:04.257Z,99.90
2019-03-22T18:43:48.669Z,99.90
2019-03-22T18:46:33.490Z,99.90
2019-03-22T18:49:18.021Z,99.90
2019-03-22T18:52:03.624Z,99.90
2019-03-22T18:54:48.410Z,99.90
2019-03-22T18:57:32.170Z,99.90
2019-03-22T19:00:20.345Z,99.90
2019-03-22T19:03:04.817Z,99.90
2019-03-22T19:05:52.059Z,99.90
2019-03-22T19:08:37.613Z,99.90
2019-03-22T19:11:23.719Z,99.90
2019-03-22T19:14:09.972Z,99.90
2019-03-22T19:16:55.590Z,99.90
2019-03-22T19:19:40.407Z,99.90
2019-03-22T19:22:24.954Z,99.90
2019-03-22T19:25:09.641Z,99.90
2019-03-22T19:27:56.955Z,99.90
2019-03-22T19:30:41.754Z,99.90
2019-03-22T19:33:26.755Z,99.90
2019-03-22T19:36:00.055Z,99.90
2019-03-22T19:38:46.031Z,99.90
2019-03-22T19:41:31.098Z,99.90
2019-03-22T19:44:16.592Z,99.90
2019-03-22T19:47:02.018Z,99.90
2019-03-22T19:49:46.926Z,99.90
2019-03-22T19:52:32.435Z,99.90
2019-03-22T19:55:16.772Z,99.90
2019-03-22T19:58:01.292Z,99.90
2019-03-22T20:00:45.723Z,99.90
2019-03-22T20:03:19.161Z,99.90
2019-03-22T20:06:03.504Z,99.90
2019-03-22T20:08:47.745Z,99.90
2019-03-22T20:11:33.988Z,99.90
2019-03-22T20:14:19.459Z,99.90
2019-03-22T20:17:06.227Z,99.90
2019-03-22T20:19:50.356Z,99.90
2019-03-22T20:22:35.399Z,99.90
2019-03-22T20:25:19.951Z,99.90
2019-03-22T20:28:06.196Z,99.90
2019-03-22T20:30:39.259Z,99.90
2019-03-22T20:33:23.537Z,99.90
2019-03-22T20:36:09.794Z,99.90
2019-03-22T20:38:55.985Z,99.90
2019-03-22T20:41:41.201Z,99.90
2019-03-22T20:44:33.620Z,99.90
2019-03-22T20:47:12.332Z,99.90
2019-03-22T20:49:58.166Z,99.90
2019-03-22T20:52:42.806Z,99.90
2019-03-22T20:55:28.076Z,99.90
2019-03-22T20:58:13.743Z,99.90
2019-03-22T21:00:59.695Z,99.90
2019-03-22T21:03:49.529Z,99.90
2019-03-22T21:06:34.012Z,99.90
2019-03-22T21:09:19.240Z,99.90
2019-03-22T21:12:07.292Z,99.90
2019-03-22T21:14:52.162Z,99.90
2019-03-22T21:17:37.831Z,99.90
2019-03-22T21:20:22.225Z,99.90
2019-03-22T21:23:07.634Z,99.90
2019-03-22T21:25:54.174Z,99.90
2019-03-22T21:28:40.821Z,99.90
2019-03-22T21:31:25.346Z,99.90
2019-03-22T21:34:10.702Z,99.90
2019-03-22T21:36:54.985Z,99.90
2019-03-22T21:39:29.198Z,99.90
2019-03-22T21:42:13.231Z,99.90
2019-03-22T21:44:57.577Z,99.90
2019-03-22T21:47:41.885Z,99.90
2019-03-22T21:50:25.823Z,99.90
2019-03-22T21:53:09.600Z,99.90
2019-03-22T21:55:54.439Z,99.90
2019-03-22T21:58:38.947Z,99.90
2019-03-22T22:01:23.474Z,99.90
2019-03-22T22:04:09.963Z,99.90
2019-03-22T22:06:54.525Z,99.90
2019-03-22T22:09:39.273Z,99.90
2019-03-22T22:12:23.594Z,99.90
2019-03-22T22:15:12.219Z,99.90
2019-03-22T22:17:51.866Z,99.90
2019-03-22T22:20:38.527Z,99.90
2019-03-22T22:23:22.982Z,99.90
2019-03-22T22:26:08.869Z,99.90
2019-03-22T22:28:53.204Z,99.90
2019-03-22T22:31:38.425Z,99.90
2019-03-22T22:34:23.139Z,99.90
2019-03-22T22:37:08.720Z,99.90
2019-03-22T22:39:52.865Z,99.90
2019-03-22T22:42:37.860Z,99.90
2019-03-22T22:45:21.773Z,99.90
2019-03-22T22:48:06.840Z,99.90
2019-03-22T22:50:51.556Z,99.90
2019-03-22T22:53:38.602Z,99.90
2019-03-22T22:56:22.447Z,99.90
2019-03-22T22:59:06.738Z,99.90
2019-03-22T23:01:51.637Z,99.90
2019-03-22T23:04:26.965Z,99.90
2019-03-22T23:07:11.687Z,99.90
2019-03-22T23:09:57.278Z,99.90
2019-03-22T23:12:41.839Z,99.90
2019-03-22T23:15:25.971Z,99.90
2019-03-22T23:18:10.135Z,99.90
2019-03-22T23:20:53.935Z,99.90
2019-03-22T23:23:38.285Z,99.90
2019-03-22T23:26:11.313Z,99.90
2019-03-22T23:28:55.456Z,99.90
2019-03-22T23:31:40.583Z,99.90
2019-03-22T23:34:24.492Z,99.90
2019-03-22T23:37:09.671Z,99.90
2019-03-22T23:39:54.808Z,99.90
2019-03-22T23:42:38.681Z,99.90
2019-03-22T23:45:23.485Z,99.90
2019-03-22T23:48:08.166Z,99.90
2019-03-22T23:50:42.534Z,99.90
2019-03-22T23:53:27.157Z,99.90
2019-03-22T23:56:11.787Z,99.90
2019-03-22T23:58:55.795Z,99.90
